Flight Track Log - Related Links

Times and Time Zones

All times are in EDT time to prevent confusion due to time zone crossing. See the SWA1319 flight status page for this flight to view local times or setup timezone preferences in your user account.

Time Position Orientation Groundspeed Altitude Reporting Facility
EDT Latitude Longitude Course Direction KTS MPH feet Rate Location/Type
Mon 10:38:38 PM 45.5689 -122.4939 103° East 214 246 2,700  Level Seattle Center
Mon 10:39:42 PM 45.5569 -122.4122 102° East 210 242 5,900 2,806 Climbing Seattle Center
Mon 10:40:42 PM 45.5019 -122.4275 191° South 257 296 8,500 2,331 Climbing Seattle Center
Mon 10:41:43 PM 45.4550 -122.5233 235° Southwest 289 333 10,600 2,361 Climbing Seattle Center
Mon 10:42:44 PM 45.3983 -122.6358 234° Southwest 339 390 13,300 2,410 Climbing Seattle Center
Mon 10:43:45 PM 45.3369 -122.7481 232° Southwest 359 413 15,500 2,213 Climbing Seattle Center
Mon 10:44:46 PM 45.2733 -122.8703 234° Southwest 381 438 17,800 2,281 Climbing Seattle Center
Mon 10:45:46 PM 45.1903 -122.9664 219° Southwest 399 459 20,100 1,983 Climbing Seattle Center
Mon 10:46:47 PM 45.0672 -122.9642 179° South 436 502 21,800 1,770 Climbing Seattle Center
Mon 10:47:48 PM 44.9411 -122.9578 178° South 446 513 23,700 2,016 Climbing Seattle Center
Mon 10:48:49 PM 44.8106 -122.9531 179° South 460 529 25,900 1,820 Climbing Seattle Center
Mon 10:49:50 PM 44.6806 -122.9486 179° South 462 532 27,400 1,279 Climbing Seattle Center
Mon 10:50:51 PM 44.5461 -122.9442 179° South 474 545 28,500 1,339 Climbing Seattle Center
Mon 10:51:51 PM 44.4075 -122.9386 178° South 490 564 30,100 1,488 Climbing Seattle Center
Mon 10:52:52 PM 44.2475 -122.9333 179° South 499 574 31,500 1,377 Climbing Seattle Center
Mon 10:53:53 PM 44.1064 -122.9306 179° South 501 577 32,900 1,131 Climbing Seattle Center
Mon 10:54:54 PM 43.9650 -122.9253 178° South 503 579 33,800 1,033 Climbing Seattle Center
Mon 10:55:55 PM 43.8219 -122.9222 179° South 508 585 35,000 590 Climbing Seattle Center
Mon 10:56:56 PM 43.6803 -122.9186 179° South 508 585 35,000  Level Seattle Center
Mon 10:57:56 PM 43.5383 -122.9139 179° South 507 583 35,000  Level Seattle Center
Mon 10:58:57 PM 43.3964 -122.9086 178° South 508 585 35,000  Level Seattle Center
Mon 10:59:58 PM 43.2553 -122.9036 179° South 508 585 35,000  Level Seattle Center
Mon 11:00:59 PM 43.1142 -122.8992 179° South 506 582 35,000  Level Seattle Center
Mon 11:02:00 PM 42.9728 -122.8958 179° South 507 583 35,000  Level Seattle Center
Mon 11:03:01 PM 42.8319 -122.8911 179° South 506 582 35,000  Level Seattle Center
Mon 11:04:01 PM 42.6850 -122.8878 179° South 503 579 35,000  Level Seattle Center
Mon 11:05:02 PM 42.5475 -122.8847 179° South 498 573 35,000  Level Seattle Center
Mon 11:06:03 PM 42.4114 -122.8794 178° South 494 568 35,000  Level Seattle Center
Mon 11:07:04 PM 42.2753 -122.8767 179° South 491 565 35,000  Level Seattle Center
Mon 11:08:05 PM 42.1389 -122.8728 179° South 494 568 35,000  Level Seattle Center
Mon 11:09:06 PM 42.0039 -122.8694 179° South 488 562 35,000  Level Seattle Center
Mon 11:10:06 PM 41.8706 -122.8653 179° South 485 558 35,000  Level Seattle Center
Mon 11:11:07 PM 41.7103 -122.8608 179° South 483 556 35,000  Level Seattle Center
Mon 11:12:08 PM 41.5767 -122.8586 179° South 482 555 35,000  Level Seattle Center
Mon 11:13:09 PM 41.4439 -122.8511 178° South 480 552 35,000  Level Seattle Center
Mon 11:14:09 PM 41.3100 -122.8414 177° South 478 550 35,000  Level Seattle Center
Mon 11:15:10 PM 41.1775 -122.8300 176° South 477 549 35,000  Level Seattle Center
Mon 11:15:35 PM 41.1239 -122.8278 178° South 480 552 35,000  Level Oakland Center
Mon 11:16:36 PM 40.9922 -122.8197 177° South 477 549 35,000  Level Oakland Center
Mon 11:17:37 PM 40.8606 -122.8092 177° South 475 547 35,000  Level Oakland Center
Mon 11:18:38 PM 40.7297 -122.8008 177° South 474 545 35,000  Level Oakland Center
Mon 11:19:39 PM 40.5989 -122.7908 177° South 473 544 35,000  Level Oakland Center
Mon 11:20:40 PM 40.4422 -122.7803 177° South 471 542 35,000  Level Oakland Center
Mon 11:21:42 PM 40.3131 -122.7719 177° South 468 539 35,000  Level Oakland Center
Mon 11:22:42 PM 40.1842 -122.7628 177° South 468 539 35,000  Level Oakland Center
Mon 11:23:43 PM 40.0556 -122.7539 177° South 468 539 35,000  Level Oakland Center
Mon 11:24:44 PM 39.9269 -122.7453 177° South 467 537 35,000  Level Oakland Center
Mon 11:25:45 PM 39.7997 -122.7372 177° South 462 532 35,000  Level Oakland Center
Mon 11:26:46 PM 39.6750 -122.7278 177° South 450 518 35,000  Level Oakland Center
Mon 11:27:47 PM 39.5469 -122.7194 177° South 459 528 35,000  Level Oakland Center
Mon 11:28:48 PM 39.3950 -122.7089 177° South 458 527 35,000 -590 Level Oakland Center
Mon 11:29:49 PM 39.2689 -122.7008 177° South 456 525 33,800 -1,951 Descending Oakland Center
Mon 11:30:51 PM 39.1592 -122.6925 177° South 452 520 31,000 -3,024 Descending Oakland Center
Mon 11:31:52 PM 39.0303 -122.6836 177° South 459 528 27,600 -3,197 Descending Oakland Center
Mon 11:32:53 PM 38.8886 -122.6733 177° South 455 524 24,500 -2,902 Descending Oakland Center
Mon 11:33:54 PM 38.7658 -122.6644 177° South 443 510 21,700 -2,607 Descending Oakland Center
Mon 11:34:55 PM 38.6461 -122.6578 178° South 434 499 19,200 -2,508 Descending Oakland Center
Mon 11:35:56 PM 38.5314 -122.6500 177° South 420 483 16,600 -2,508 Descending Oakland Center
Mon 11:36:57 PM 38.4200 -122.6294 172° South 409 471 14,100 -2,410 Descending Oakland Center
Mon 11:37:58 PM 38.3122 -122.6089 171° South 397 457 11,700 -1,967 Descending Oakland Center
Mon 11:38:59 PM 38.2094 -122.5900 172° South 382 440 10,100 -1,082 Descending Oakland Center
Mon 11:40:00 PM 38.1250 -122.5656 167° South 322 371 9,500 -787 Descending Oakland Center
Mon 11:41:01 PM 38.0561 -122.5056 146° Southeast 300 345 8,500 -984 Descending Oakland Center
Mon 11:42:02 PM 37.9872 -122.4458 146° Southeast 296 341 7,500 -1,033 Descending Oakland Center
Mon 11:43:03 PM 37.9192 -122.3875 146° Southeast 292 336 6,400 -984 Descending Oakland Center
Mon 11:44:04 PM 37.8544 -122.3286 144° Southeast 287 330 5,500 -738 Descending Oakland Center
Mon 11:45:05 PM 37.7989 -122.2364 127° Southeast 278 320 4,900 -984 Descending Oakland Center
Mon 11:46:06 PM 37.7550 -122.1636 127° Southeast 269 310 3,500 -738 Descending Oakland Center
Mon 11:47:07 PM 37.7128 -122.0939 127° Southeast 260 299 3,400 -248 Descending Oakland Center
Mon 11:48:07 PM 37.6647 -122.0550 147° Southeast 248 285 3,000 -744 Descending Oakland Center
Mon 11:49:08 PM 37.6558 -122.1225 261° West 227 261 1,900 -1,033 Descending Oakland Center
Mon 11:50:09 PM 37.6700 -122.1753 289° West 189 217 900 -836 Descending Oakland Center
Mon 11:51:10 PM 37.6956 -122.2056 317° Northwest 147 169 200 -689 Descending Oakland Center

Login

Don't have an account? Register now (free) for customized features, flight alerts, and more!